sensor_id;sensor_type;location;lat;lon;timestamp;pressure;altitude;pressure_sealevel;temperature;humidity
55010;BME280;40903;51.638;7.528;2023-10-31T00:00:09;98848.09;;;13.33;100.00
55010;BME280;40903;51.638;7.528;2023-10-31T00:02:36;98847.75;;;13.34;100.00
55010;BME280;40903;51.638;7.528;2023-10-31T00:05:03;98848.91;;;13.33;100.00
55010;BME280;40903;51.638;7.528;2023-10-31T00:07:28;98846.59;;;13.35;100.00
55010;BME280;40903;51.638;7.528;2023-10-31T00:09:56;98851.25;;;13.35;100.00
55010;BME280;40903;51.638;7.528;2023-10-31T00:12:21;98862.66;;;13.37;100.00
55010;BME280;40903;51.638;7.528;2023-10-31T00:14:47;98859.03;;;13.33;100.00
55010;BME280;40903;51.638;7.528;2023-10-31T00:17:13;98867.25;;;13.33;100.00
55010;BME280;40903;51.638;7.528;2023-10-31T00:19:39;98866.03;;;13.30;100.00
55010;BME280;40903;51.638;7.528;2023-10-31T00:22:06;98874.69;;;13.32;100.00
55010;BME280;40903;51.638;7.528;2023-10-31T00:24:31;98882.25;;;13.23;100.00
55010;BME280;40903;51.638;7.528;2023-10-31T00:26:59;98881.91;;;13.25;100.00
55010;BME280;40903;51.638;7.528;2023-10-31T00:29:27;98883.69;;;13.17;100.00
55010;BME280;40903;51.638;7.528;2023-10-31T00:31:53;98889.81;;;13.14;100.00
55010;BME280;40903;51.638;7.528;2023-10-31T00:34:18;98888.22;;;13.13;100.00
55010;BME280;40903;51.638;7.528;2023-10-31T00:36:44;98890.47;;;13.08;100.00
55010;BME280;40903;51.638;7.528;2023-10-31T00:39:10;98896.78;;;12.96;100.00
55010;BME280;40903;51.638;7.528;2023-10-31T00:41:35;98903.06;;;12.85;100.00
55010;BME280;40903;51.638;7.528;2023-10-31T00:44:01;98900.16;;;12.78;100.00
55010;BME280;40903;51.638;7.528;2023-10-31T00:46:27;98911.03;;;12.62;100.00
55010;BME280;40903;51.638;7.528;2023-10-31T00:48:52;98916.19;;;12.52;100.00
55010;BME280;40903;51.638;7.528;2023-10-31T00:51:17;98921.44;;;12.45;100.00
55010;BME280;40903;51.638;7.528;2023-10-31T00:53:45;98920.44;;;12.37;100.00
55010;BME280;40903;51.638;7.528;2023-10-31T00:56:11;98937.44;;;12.19;100.00
55010;BME280;40903;51.638;7.528;2023-10-31T00:58:36;98932.56;;;12.12;100.00
55010;BME280;40903;51.638;7.528;2023-10-31T01:01:02;98953.84;;;12.07;100.00
55010;BME280;40903;51.638;7.528;2023-10-31T01:03:27;98944.97;;;11.98;100.00
55010;BME280;40903;51.638;7.528;2023-10-31T01:05:53;98948.94;;;11.88;100.00
55010;BME280;40903;51.638;7.528;2023-10-31T01:08:19;98964.88;;;11.86;100.00
55010;BME280;40903;51.638;7.528;2023-10-31T01:10:45;98956.47;;;11.79;100.00
55010;BME280;40903;51.638;7.528;2023-10-31T01:13:11;98970.00;;;11.76;100.00
55010;BME280;40903;51.638;7.528;2023-10-31T01:15:37;98979.19;;;11.72;100.00
55010;BME280;40903;51.638;7.528;2023-10-31T01:18:02;98978.97;;;11.65;100.00
55010;BME280;40903;51.638;7.528;2023-10-31T01:20:28;98978.16;;;11.64;100.00
55010;BME280;40903;51.638;7.528;2023-10-31T01:22:53;98989.91;;;11.65;100.00
55010;BME280;40903;51.638;7.528;2023-10-31T01:25:22;98996.81;;;11.62;100.00
55010;BME280;40903;51.638;7.528;2023-10-31T01:27:48;98982.59;;;11.57;100.00
55010;BME280;40903;51.638;7.528;2023-10-31T01:30:13;98994.16;;;11.54;100.00
55010;BME280;40903;51.638;7.528;2023-10-31T01:32:40;98999.63;;;11.54;100.00
55010;BME280;40903;51.638;7.528;2023-10-31T01:35:06;99004.72;;;11.43;100.00
55010;BME280;40903;51.638;7.528;2023-10-31T01:37:32;99009.59;;;11.38;100.00
55010;BME280;40903;51.638;7.528;2023-10-31T01:39:57;99016.28;;;11.40;100.00
55010;BME280;40903;51.638;7.528;2023-10-31T01:42:22;99019.69;;;11.37;100.00
55010;BME280;40903;51.638;7.528;2023-10-31T01:44:51;99031.41;;;11.38;100.00
55010;BME280;40903;51.638;7.528;2023-10-31T01:47:17;99027.97;;;11.29;100.00
55010;BME280;40903;51.638;7.528;2023-10-31T01:49:44;99038.88;;;11.29;100.00
55010;BME280;40903;51.638;7.528;2023-10-31T01:52:10;99044.53;;;11.24;100.00
55010;BME280;40903;51.638;7.528;2023-10-31T01:54:37;99044.94;;;11.14;100.00
55010;BME280;40903;51.638;7.528;2023-10-31T01:57:04;99039.50;;;11.14;100.00
55010;BME280;40903;51.638;7.528;2023-10-31T01:59:30;99046.75;;;11.10;100.00
55010;BME280;40903;51.638;7.528;2023-10-31T02:01:56;99044.94;;;11.14;100.00
55010;BME280;40903;51.638;7.528;2023-10-31T02:04:23;99058.34;;;11.07;100.00
55010;BME280;40903;51.638;7.528;2023-10-31T02:06:49;99061.06;;;11.07;100.00
55010;BME280;40903;51.638;7.528;2023-10-31T02:09:18;99057.31;;;11.11;100.00
55010;BME280;40903;51.638;7.528;2023-10-31T02:11:44;99062.19;;;11.06;100.00
55010;BME280;40903;51.638;7.528;2023-10-31T02:14:09;99061.13;;;10.98;100.00
55010;BME280;40903;51.638;7.528;2023-10-31T02:16:35;99063.88;;;10.98;100.00
55010;BME280;40903;51.638;7.528;2023-10-31T02:19:00;99074.03;;;10.89;100.00
55010;BME280;40903;51.638;7.528;2023-10-31T02:21:27;99076.75;;;10.89;100.00
55010;BME280;40903;51.638;7.528;2023-10-31T02:24:00;99070.47;;;10.89;100.00
55010;BME280;40903;51.638;7.528;2023-10-31T02:26:33;99076.59;;;10.86;100.00
55010;BME280;40903;51.638;7.528;2023-10-31T02:29:00;99071.03;;;10.82;100.00
55010;BME280;40903;51.638;7.528;2023-10-31T02:31:26;99078.09;;;10.83;100.00
55010;BME280;40903;51.638;7.528;2023-10-31T02:33:51;99081.94;;;10.82;100.00
55010;BME280;40903;51.638;7.528;2023-10-31T02:36:17;99088.03;;;10.79;100.00
55010;BME280;40903;51.638;7.528;2023-10-31T02:38:43;99087.72;;;10.81;100.00
55010;BME280;40903;51.638;7.528;2023-10-31T02:41:09;99093.84;;;10.78;100.00
55010;BME280;40903;51.638;7.528;2023-10-31T02:43:34;99091.22;;;10.81;100.00
55010;BME280;40903;51.638;7.528;2023-10-31T02:46:02;99099.75;;;10.80;100.00
55010;BME280;40903;51.638;7.528;2023-10-31T02:48:27;99085.78;;;10.81;100.00
55010;BME280;40903;51.638;7.528;2023-10-31T02:50:55;99107.47;;;10.78;100.00
55010;BME280;40903;51.638;7.528;2023-10-31T02:53:20;99106.50;;;10.74;100.00
55010;BME280;40903;51.638;7.528;2023-10-31T02:55:46;99105.41;;;10.75;100.00
55010;BME280;40903;51.638;7.528;2023-10-31T02:58:12;99110.38;;;10.73;100.00
55010;BME280;40903;51.638;7.528;2023-10-31T03:00:37;99112.78;;;10.74;100.00
55010;BME280;40903;51.638;7.528;2023-10-31T03:03:03;99119.03;;;10.75;100.00
55010;BME280;40903;51.638;7.528;2023-10-31T03:05:29;99117.41;;;10.74;100.00
55010;BME280;40903;51.638;7.528;2023-10-31T03:07:55;99117.09;;;10.75;100.00
55010;BME280;40903;51.638;7.528;2023-10-31T03:10:20;99126.88;;;10.76;100.00
55010;BME280;40903;51.638;7.528;2023-10-31T03:12:46;99121.56;;;10.80;100.00
55010;BME280;40903;51.638;7.528;2023-10-31T03:15:12;99120.44;;;10.81;100.00
55010;BME280;40903;51.638;7.528;2023-10-31T03:17:39;99117.03;;;10.84;100.00
55010;BME280;40903;51.638;7.528;2023-10-31T03:20:05;99125.56;;;10.82;100.00
55010;BME280;40903;51.638;7.528;2023-10-31T03:22:31;99135.19;;;10.80;100.00
55010;BME280;40903;51.638;7.528;2023-10-31T03:24:56;99132.28;;;10.85;100.00
55010;BME280;40903;51.638;7.528;2023-10-31T03:27:22;99129.06;;;10.83;100.00
55010;BME280;40903;51.638;7.528;2023-10-31T03:29:49;99135.81;;;10.85;100.00
55010;BME280;40903;51.638;7.528;2023-10-31T03:32:14;99133.19;;;10.89;100.00
55010;BME280;40903;51.638;7.528;2023-10-31T03:34:40;99140.59;;;10.88;100.00
55010;BME280;40903;51.638;7.528;2023-10-31T03:37:06;99133.19;;;10.89;100.00
55010;BME280;40903;51.638;7.528;2023-10-31T03:39:32;99124.25;;;10.88;100.00
55010;BME280;40903;51.638;7.528;2023-10-31T03:41:57;99134.34;;;10.88;100.00
55010;BME280;40903;51.638;7.528;2023-10-31T03:44:23;99136.78;;;10.81;100.00
55010;BME280;40903;51.638;7.528;2023-10-31T03:46:49;99126.22;;;10.79;100.00
55010;BME280;40903;51.638;7.528;2023-10-31T03:49:15;99140.19;;;10.78;100.00
55010;BME280;40903;51.638;7.528;2023-10-31T03:51:41;99146.31;;;10.75;100.00
55010;BME280;40903;51.638;7.528;2023-10-31T03:54:07;99133.78;;;10.74;100.00
55010;BME280;40903;51.638;7.528;2023-10-31T03:56:42;99148.22;;;10.74;100.00
55010;BME280;40903;51.638;7.528;2023-10-31T03:59:09;99146.41;;;10.78;100.00
55010;BME280;40903;51.638;7.528;2023-10-31T04:01:34;99154.13;;;10.76;100.00
55010;BME280;40903;51.638;7.528;2023-10-31T04:04:00;99148.38;;;10.78;100.00
55010;BME280;40903;51.638;7.528;2023-10-31T04:06:25;99144.16;;;10.80;100.00
55010;BME280;40903;51.638;7.528;2023-10-31T04:08:51;99152.34;;;10.80;100.00
55010;BME280;40903;51.638;7.528;2023-10-31T04:11:17;99151.88;;;10.78;100.00
55010;BME280;40903;51.638;7.528;2023-10-31T04:13:43;99155.88;;;10.81;100.00
55010;BME280;40903;51.638;7.528;2023-10-31T04:16:09;99151.56;;;10.80;100.00
55010;BME280;40903;51.638;7.528;2023-10-31T04:18:35;99159.28;;;10.78;100.00
55010;BME280;40903;51.638;7.528;2023-10-31T04:21:01;99162.00;;;10.78;100.00
55010;BME280;40903;51.638;7.528;2023-10-31T04:23:27;99163.59;;;10.79;100.00
55010;BME280;40903;51.638;7.528;2023-10-31T04:25:54;99173.69;;;10.78;100.00
55010;BME280;40903;51.638;7.528;2023-10-31T04:28:19;99173.03;;;10.81;100.00
55010;BME280;40903;51.638;7.528;2023-10-31T04:30:45;99173.84;;;10.82;100.00
55010;BME280;40903;51.638;7.528;2023-10-31T04:33:12;99163.75;;;10.82;100.00
55010;BME280;40903;51.638;7.528;2023-10-31T04:35:37;99173.97;;;10.85;100.00
55010;BME280;40903;51.638;7.528;2023-10-31T04:38:03;99181.03;;;10.86;100.00
55010;BME280;40903;51.638;7.528;2023-10-31T04:40:28;99181.81;;;10.87;100.00
55010;BME280;40903;51.638;7.528;2023-10-31T04:42:56;99185.34;;;10.87;100.00
55010;BME280;40903;51.638;7.528;2023-10-31T04:45:22;99182.78;;;10.91;100.00
55010;BME280;40903;51.638;7.528;2023-10-31T04:47:47;99186.97;;;10.88;100.00
55010;BME280;40903;51.638;7.528;2023-10-31T04:50:13;99186.13;;;10.88;100.00
55010;BME280;40903;51.638;7.528;2023-10-31T04:52:39;99193.53;;;10.87;100.00
55010;BME280;40903;51.638;7.528;2023-10-31T04:55:05;99193.06;;;10.85;100.00
55010;BME280;40903;51.638;7.528;2023-10-31T04:57:31;99204.44;;;10.87;100.00
55010;BME280;40903;51.638;7.528;2023-10-31T04:59:58;99199.00;;;10.87;100.00
55010;BME280;40903;51.638;7.528;2023-10-31T05:02:24;99195.44;;;10.87;100.00
55010;BME280;40903;51.638;7.528;2023-10-31T05:04:50;99192.09;;;10.90;100.00
55010;BME280;40903;51.638;7.528;2023-10-31T05:07:19;99188.22;;;10.91;100.00
55010;BME280;40903;51.638;7.528;2023-10-31T05:09:46;99193.19;;;10.89;100.00
55010;BME280;40903;51.638;7.528;2023-10-31T05:12:11;99204.25;;;10.92;100.00
55010;BME280;40903;51.638;7.528;2023-10-31T05:14:40;99200.06;;;10.95;100.00
55010;BME280;40903;51.638;7.528;2023-10-31T05:17:05;99209.84;;;10.96;100.00
55010;BME280;40903;51.638;7.528;2023-10-31T05:19:31;99205.53;;;10.95;100.00
55010;BME280;40903;51.638;7.528;2023-10-31T05:21:56;99215.50;;;10.91;100.00
55010;BME280;40903;51.638;7.528;2023-10-31T05:24:22;99220.97;;;10.91;100.00
55010;BME280;40903;51.638;7.528;2023-10-31T05:26:47;99215.78;;;10.98;100.00
55010;BME280;40903;51.638;7.528;2023-10-31T05:29:13;99213.25;;;10.93;100.00
55010;BME280;40903;51.638;7.528;2023-10-31T05:31:39;99205.72;;;10.90;100.00
55010;BME280;40903;51.638;7.528;2023-10-31T05:34:07;99212.78;;;10.91;100.00
55010;BME280;40903;51.638;7.528;2023-10-31T05:36:32;99208.31;;;10.86;100.00
55010;BME280;40903;51.638;7.528;2023-10-31T05:38:58;99217.59;;;10.85;100.00
55010;BME280;40903;51.638;7.528;2023-10-31T05:41:23;99220.00;;;10.87;100.00
55010;BME280;40903;51.638;7.528;2023-10-31T05:43:49;99221.28;;;10.89;100.00
55010;BME280;40903;51.638;7.528;2023-10-31T05:46:15;99227.56;;;10.81;100.00
55010;BME280;40903;51.638;7.528;2023-10-31T05:48:43;99233.81;;;10.82;100.00
55010;BME280;40903;51.638;7.528;2023-10-31T05:51:16;99229.97;;;10.83;100.00
55010;BME280;40903;51.638;7.528;2023-10-31T05:53:47;99242.94;;;10.86;100.00
55010;BME280;40903;51.638;7.528;2023-10-31T05:56:14;99250.78;;;10.87;100.00
55010;BME280;40903;51.638;7.528;2023-10-31T05:58:41;99252.41;;;10.88;100.00
55010;BME280;40903;51.638;7.528;2023-10-31T06:01:08;99255.91;;;10.89;100.00
55010;BME280;40903;51.638;7.528;2023-10-31T06:03:34;99255.91;;;10.89;100.00
55010;BME280;40903;51.638;7.528;2023-10-31T06:06:00;99265.22;;;10.88;100.00
55010;BME280;40903;51.638;7.528;2023-10-31T06:08:26;99260.09;;;10.86;100.00
55010;BME280;40903;51.638;7.528;2023-10-31T06:10:56;99270.66;;;10.88;100.00
55010;BME280;40903;51.638;7.528;2023-10-31T06:13:24;99281.56;;;10.88;100.00
55010;BME280;40903;51.638;7.528;2023-10-31T06:15:51;99277.59;;;10.85;100.00
55010;BME280;40903;51.638;7.528;2023-10-31T06:18:17;99289.28;;;10.86;100.00
55010;BME280;40903;51.638;7.528;2023-10-31T06:20:43;99293.81;;;10.82;100.00
55010;BME280;40903;51.638;7.528;2023-10-31T06:23:09;99281.44;;;10.84;100.00
55010;BME280;40903;51.638;7.528;2023-10-31T06:25:34;99299.25;;;10.82;100.00
55010;BME280;40903;51.638;7.528;2023-10-31T06:28:00;99303.59;;;10.83;100.00
55010;BME280;40903;51.638;7.528;2023-10-31T06:30:25;99311.75;;;10.83;100.00
55010;BME280;40903;51.638;7.528;2023-10-31T06:32:52;99310.63;;;10.84;100.00
55010;BME280;40903;51.638;7.528;2023-10-31T06:35:18;99317.69;;;10.85;100.00
55010;BME280;40903;51.638;7.528;2023-10-31T06:37:44;99325.38;;;10.83;100.00
55010;BME280;40903;51.638;7.528;2023-10-31T06:40:10;99338.09;;;10.79;100.00
55010;BME280;40903;51.638;7.528;2023-10-31T06:42:37;99345.91;;;10.80;100.00
55010;BME280;40903;51.638;7.528;2023-10-31T06:45:04;99345.59;;;10.82;100.00
55010;BME280;40903;51.638;7.528;2023-10-31T06:47:31;99347.22;;;10.83;100.00
55010;BME280;40903;51.638;7.528;2023-10-31T06:49:56;99360.53;;;10.84;100.00
55010;BME280;40903;51.638;7.528;2023-10-31T06:52:22;99360.84;;;10.83;100.00
55010;BME280;40903;51.638;7.528;2023-10-31T06:54:47;99365.00;;;10.80;100.00
55010;BME280;40903;51.638;7.528;2023-10-31T06:57:13;99371.59;;;10.79;100.00
55010;BME280;40903;51.638;7.528;2023-10-31T06:59:41;99374.66;;;10.78;100.00
55010;BME280;40903;51.638;7.528;2023-10-31T07:02:06;99375.78;;;10.77;100.00
55010;BME280;40903;51.638;7.528;2023-10-31T07:04:32;99380.09;;;10.78;100.00
55010;BME280;40903;51.638;7.528;2023-10-31T07:07:05;99375.78;;;10.77;100.00
55010;BME280;40903;51.638;7.528;2023-10-31T07:09:33;99375.31;;;10.75;100.00
55010;BME280;40903;51.638;7.528;2023-10-31T07:11:58;99388.59;;;10.76;100.00
55010;BME280;40903;51.638;7.528;2023-10-31T07:14:27;99386.34;;;10.78;100.00
55010;BME280;40903;51.638;7.528;2023-10-31T07:16:53;99389.22;;;10.82;100.00
55010;BME280;40903;51.638;7.528;2023-10-31T07:19:18;99381.53;;;10.84;100.00
55010;BME280;40903;51.638;7.528;2023-10-31T07:21:44;99383.59;;;10.87;100.00
55010;BME280;40903;51.638;7.528;2023-10-31T07:24:09;99388.44;;;10.90;100.00
55010;BME280;40903;51.638;7.528;2023-10-31T07:26:35;99390.16;;;10.94;100.00
55010;BME280;40903;51.638;7.528;2023-10-31T07:29:01;99385.34;;;11.00;100.00
55010;BME280;40903;51.638;7.528;2023-10-31T07:31:30;99393.84;;;11.07;100.00
55010;BME280;40903;51.638;7.528;2023-10-31T07:33:55;99396.06;;;11.13;100.00
55010;BME280;40903;51.638;7.528;2023-10-31T07:36:22;99390.88;;;11.20;100.00
55010;BME280;40903;51.638;7.528;2023-10-31T07:38:48;99390.72;;;11.25;100.00
55010;BME280;40903;51.638;7.528;2023-10-31T07:41:14;99385.41;;;11.29;100.00
55010;BME280;40903;51.638;7.528;2023-10-31T07:43:41;99386.03;;;11.34;100.00
55010;BME280;40903;51.638;7.528;2023-10-31T07:46:08;99380.56;;;11.34;100.00
55010;BME280;40903;51.638;7.528;2023-10-31T07:48:33;99384.63;;;11.28;100.00
55010;BME280;40903;51.638;7.528;2023-10-31T07:50:59;99372.72;;;11.24;100.00
55010;BME280;40903;51.638;7.528;2023-10-31T07:53:26;99384.16;;;11.18;100.00
55010;BME280;40903;51.638;7.528;2023-10-31T07:55:52;99390.94;;;11.12;100.00
55010;BME280;40903;51.638;7.528;2023-10-31T07:58:18;99391.59;;;11.09;100.00
55010;BME280;40903;51.638;7.528;2023-10-31T08:00:43;99392.69;;;11.16;100.00
55010;BME280;40903;51.638;7.528;2023-10-31T08:03:09;99382.56;;;11.17;100.00
55010;BME280;40903;51.638;7.528;2023-10-31T08:05:34;99391.88;;;11.16;100.00
55010;BME280;40903;51.638;7.528;2023-10-31T08:08:01;99404.84;;;11.19;100.00
55010;BME280;40903;51.638;7.528;2023-10-31T08:10:27;99402.63;;;11.21;100.00
55010;BME280;40903;51.638;7.528;2023-10-31T08:12:52;99401.81;;;11.20;100.00
55010;BME280;40903;51.638;7.528;2023-10-31T08:15:18;99411.91;;;11.28;100.00
55010;BME280;40903;51.638;7.528;2023-10-31T08:17:44;99413.63;;;11.33;100.00
55010;BME280;40903;51.638;7.528;2023-10-31T08:20:11;99413.13;;;11.39;100.00
55010;BME280;40903;51.638;7.528;2023-10-31T08:22:39;99414.88;;;11.44;100.00
55010;BME280;40903;51.638;7.528;2023-10-31T08:25:06;99423.88;;;11.44;100.00
55010;BME280;40903;51.638;7.528;2023-10-31T08:27:33;99425.97;;;11.47;100.00
55010;BME280;40903;51.638;7.528;2023-10-31T08:29:58;99432.03;;;11.53;100.00
55010;BME280;40903;51.638;7.528;2023-10-31T08:32:23;99426.41;;;11.58;100.00
55010;BME280;40903;51.638;7.528;2023-10-31T08:34:50;99423.50;;;11.63;100.00
55010;BME280;40903;51.638;7.528;2023-10-31T08:37:15;99431.06;;;11.66;100.00
55010;BME280;40903;51.638;7.528;2023-10-31T08:39:44;99427.00;;;11.72;100.00
55010;BME280;40903;51.638;7.528;2023-10-31T08:42:10;99437.72;;;11.76;100.00
55010;BME280;40903;51.638;7.528;2023-10-31T08:44:40;99439.31;;;11.77;100.00
55010;BME280;40903;51.638;7.528;2023-10-31T08:47:05;99441.44;;;11.80;100.00
55010;BME280;40903;51.638;7.528;2023-10-31T08:49:32;99447.47;;;11.86;100.00
55010;BME280;40903;51.638;7.528;2023-10-31T08:51:58;99449.38;;;11.94;100.00
55010;BME280;40903;51.638;7.528;2023-10-31T08:54:23;99445.16;;;12.05;100.00
55010;BME280;40903;51.638;7.528;2023-10-31T08:56:49;99448.50;;;12.10;100.00
55010;BME280;40903;51.638;7.528;2023-10-31T08:59:15;99475.31;;;12.08;100.00
55010;BME280;40903;51.638;7.528;2023-10-31T09:01:41;99467.63;;;12.10;100.00
55010;BME280;40903;51.638;7.528;2023-10-31T09:04:06;99481.28;;;12.10;100.00
55010;BME280;40903;51.638;7.528;2023-10-31T09:06:33;99483.81;;;12.15;100.00
55010;BME280;40903;51.638;7.528;2023-10-31T09:08:59;99489.91;;;12.21;100.00
55010;BME280;40903;51.638;7.528;2023-10-31T09:11:24;99484.69;;;12.28;100.00
55010;BME280;40903;51.638;7.528;2023-10-31T09:13:50;99490.09;;;12.36;100.00
55010;BME280;40903;51.638;7.528;2023-10-31T09:16:16;99492.38;;;12.34;100.00
55010;BME280;40903;51.638;7.528;2023-10-31T09:18:42;99502.38;;;12.30;100.00
55010;BME280;40903;51.638;7.528;2023-10-31T09:21:09;99501.75;;;12.25;100.00
55010;BME280;40903;51.638;7.528;2023-10-31T09:23:35;99517.06;;;12.17;100.00
55010;BME280;40903;51.638;7.528;2023-10-31T09:26:01;99515.97;;;12.10;100.00
55010;BME280;40903;51.638;7.528;2023-10-31T09:28:28;99515.22;;;12.01;100.00
55010;BME280;40903;51.638;7.528;2023-10-31T09:30:53;99524.38;;;12.05;100.00
55010;BME280;40903;51.638;7.528;2023-10-31T09:33:21;99525.16;;;12.05;100.00
55010;BME280;40903;51.638;7.528;2023-10-31T09:35:46;99527.56;;;12.07;100.00
55010;BME280;40903;51.638;7.528;2023-10-31T09:38:14;99538.00;;;12.13;100.00
55010;BME280;40903;51.638;7.528;2023-10-31T09:40:39;99535.53;;;12.20;100.00
55010;BME280;40903;51.638;7.528;2023-10-31T09:43:05;99533.88;;;12.28;100.00
55010;BME280;40903;51.638;7.528;2023-10-31T09:45:32;99551.53;;;12.39;100.00
55010;BME280;40903;51.638;7.528;2023-10-31T09:47:59;99552.00;;;12.41;100.00
55010;BME280;40903;51.638;7.528;2023-10-31T09:50:26;99556.69;;;12.40;100.00
55010;BME280;40903;51.638;7.528;2023-10-31T09:52:52;99562.88;;;12.49;100.00
55010;BME280;40903;51.638;7.528;2023-10-31T09:55:18;99566.88;;;12.52;100.00
55010;BME280;40903;51.638;7.528;2023-10-31T09:57:46;99563.22;;;12.68;100.00
55010;BME280;40903;51.638;7.528;2023-10-31T10:00:12;99571.97;;;12.82;100.00
55010;BME280;40903;51.638;7.528;2023-10-31T10:02:37;99577.72;;;12.98;100.00
55010;BME280;40903;51.638;7.528;2023-10-31T10:05:04;99574.44;;;13.04;100.00
55010;BME280;40903;51.638;7.528;2023-10-31T10:07:33;99582.31;;;13.06;100.00
55010;BME280;40903;51.638;7.528;2023-10-31T10:10:01;99591.25;;;13.15;100.00
55010;BME280;40903;51.638;7.528;2023-10-31T10:12:27;99597.59;;;13.27;100.00
55010;BME280;40903;51.638;7.528;2023-10-31T10:14:52;99594.53;;;13.29;100.00
55010;BME280;40903;51.638;7.528;2023-10-31T10:17:25;99593.53;;;13.33;100.00
55010;BME280;40903;51.638;7.528;2023-10-31T10:20:11;99606.22;;;13.38;100.00
55010;BME280;40903;51.638;7.528;2023-10-31T10:22:41;99607.69;;;13.35;100.00
55010;BME280;40903;51.638;7.528;2023-10-31T10:25:08;99616.09;;;13.30;100.00
55010;BME280;40903;51.638;7.528;2023-10-31T10:27:34;99618.50;;;13.32;100.00
55010;BME280;40903;51.638;7.528;2023-10-31T10:30:02;99621.16;;;13.40;100.00
55010;BME280;40903;51.638;7.528;2023-10-31T10:32:28;99620.22;;;13.36;100.00
55010;BME280;40903;51.638;7.528;2023-10-31T10:34:54;99620.91;;;13.33;100.00
55010;BME280;40903;51.638;7.528;2023-10-31T10:37:20;99615.44;;;13.33;100.00
55010;BME280;40903;51.638;7.528;2023-10-31T10:39:51;99628.66;;;13.31;100.00
55010;BME280;40903;51.638;7.528;2023-10-31T10:42:46;99627.53;;;13.32;100.00
55010;BME280;40903;51.638;7.528;2023-10-31T10:45:12;99634.38;;;13.18;100.00
55010;BME280;40903;51.638;7.528;2023-10-31T10:47:40;99634.91;;;13.11;100.00
55010;BME280;40903;51.638;7.528;2023-10-31T10:50:12;99631.50;;;13.14;100.00
55010;BME280;40903;51.638;7.528;2023-10-31T10:52:42;99639.13;;;13.09;100.00
55010;BME280;40903;51.638;7.528;2023-10-31T10:55:21;99635.97;;;12.98;100.00
55010;BME280;40903;51.638;7.528;2023-10-31T10:58:00;99641.66;;;12.85;100.00
55010;BME280;40903;51.638;7.528;2023-10-31T11:00:26;99644.09;;;12.86;100.00
55010;BME280;40903;51.638;7.528;2023-10-31T11:02:56;99653.31;;;12.73;100.00
55010;BME280;40903;51.638;7.528;2023-10-31T11:05:26;99654.63;;;12.67;100.00
55010;BME280;40903;51.638;7.528;2023-10-31T11:07:52;99662.66;;;12.72;100.00
55010;BME280;40903;51.638;7.528;2023-10-31T11:10:21;99653.03;;;12.66;100.00
55010;BME280;40903;51.638;7.528;2023-10-31T11:12:48;99661.69;;;12.68;100.00
55010;BME280;40903;51.638;7.528;2023-10-31T11:15:15;99659.25;;;12.75;100.00
55010;BME280;40903;51.638;7.528;2023-10-31T11:17:46;99661.34;;;12.78;100.00
55010;BME280;40903;51.638;7.528;2023-10-31T11:20:15;99667.47;;;12.75;100.00
55010;BME280;40903;51.638;7.528;2023-10-31T11:22:44;99663.91;;;12.75;100.00
55010;BME280;40903;51.638;7.528;2023-10-31T11:25:13;99663.28;;;12.78;100.00
55010;BME280;40903;51.638;7.528;2023-10-31T11:27:41;99668.88;;;12.81;100.00
55010;BME280;40903;51.638;7.528;2023-10-31T11:30:26;99662.22;;;12.91;100.00
55010;BME280;40903;51.638;7.528;2023-10-31T11:32:59;99676.25;;;12.89;100.00
55010;BME280;40903;51.638;7.528;2023-10-31T11:35:29;99665.28;;;12.89;100.00
55010;BME280;40903;51.638;7.528;2023-10-31T11:38:04;99662.56;;;12.89;100.00
55010;BME280;40903;51.638;7.528;2023-10-31T11:43:15;99669.63;;;12.99;100.00
55010;BME280;40903;51.638;7.528;2023-10-31T11:45:43;99670.41;;;12.99;100.00
55010;BME280;40903;51.638;7.528;2023-10-31T11:48:12;99671.06;;;12.96;100.00
55010;BME280;40903;51.638;7.528;2023-10-31T11:50:39;99685.13;;;12.86;100.00
55010;BME280;40903;51.638;7.528;2023-10-31T11:53:09;99688.63;;;12.87;100.00
55010;BME280;40903;51.638;7.528;2023-10-31T11:55:41;99686.28;;;12.77;100.00
55010;BME280;40903;51.638;7.528;2023-10-31T11:58:20;99692.41;;;12.74;100.00
55010;BME280;40903;51.638;7.528;2023-10-31T12:00:47;99695.94;;;12.74;100.00
55010;BME280;40903;51.638;7.528;2023-10-31T12:03:23;99700.59;;;12.74;100.00
55010;BME280;40903;51.638;7.528;2023-10-31T12:08:31;99705.28;;;12.73;100.00
55010;BME280;40903;51.638;7.528;2023-10-31T12:11:11;99708.81;;;12.74;100.00
55010;BME280;40903;51.638;7.528;2023-10-31T12:13:38;99716.03;;;12.78;100.00
55010;BME280;40903;51.638;7.528;2023-10-31T12:16:06;99711.69;;;12.77;100.00
55010;BME280;40903;51.638;7.528;2023-10-31T12:18:34;99713.16;;;12.75;100.00
55010;BME280;40903;51.638;7.528;2023-10-31T12:21:01;99715.88;;;12.75;100.00
55010;BME280;40903;51.638;7.528;2023-10-31T12:23:28;99718.47;;;12.80;100.00
55010;BME280;40903;51.638;7.528;2023-10-31T12:25:54;99726.00;;;12.83;100.00
55010;BME280;40903;51.638;7.528;2023-10-31T12:28:22;99720.81;;;12.90;100.00
55010;BME280;40903;51.638;7.528;2023-10-31T12:30:53;99730.59;;;12.99;100.00
55010;BME280;40903;51.638;7.528;2023-10-31T12:33:20;99727.69;;;13.04;100.00
55010;BME280;40903;51.638;7.528;2023-10-31T12:35:48;99726.22;;;13.07;100.00
55010;BME280;40903;51.638;7.528;2023-10-31T12:38:15;99729.44;;;13.09;100.00
55010;BME280;40903;51.638;7.528;2023-10-31T12:40:42;99728.22;;;13.27;100.00
55010;BME280;40903;51.638;7.528;2023-10-31T12:43:10;99726.63;;;13.46;100.00
55010;BME280;40903;51.638;7.528;2023-10-31T12:45:36;99727.66;;;13.62;100.00
55010;BME280;40903;51.638;7.528;2023-10-31T12:48:10;99721.75;;;13.72;100.00
55010;BME280;40903;51.638;7.528;2023-10-31T12:50:38;99727.97;;;13.81;100.00
55010;BME280;40903;51.638;7.528;2023-10-31T12:53:08;99720.28;;;13.95;100.00